Time;durP1;ratioP1;P1;durP2;ratioP2;P2;SDS_P1;SDS_P2;PMS_P1;PMS_P2;Temp;Humidity;BMP_temperature;BMP_pressure;BME280_temperature;BME280_humidity;BME280_pressure;Samples;Min_cycle;Max_cycle;Signal;HPM_P1;HPM_P2
2024/03/05 00:03:45;;;;;;;42.50;28.90;;;7.90;99.90;;;8.73;100.00;97494.47;10345637;28;20247;-66
2024/03/05 00:08:49;;;;;;;37.63;27.30;;;7.80;99.90;;;8.70;100.00;97490.84;10344984;28;20578;-65
2024/03/05 00:13:53;;;;;;;38.20;25.10;;;7.80;99.90;;;8.58;100.00;97491.03;10338401;28;20316;-65
2024/03/05 00:18:56;;;;;;;33.93;23.93;;;7.70;99.90;;;8.56;100.00;97498.59;10341657;28;20235;-66
2024/03/05 00:24:01;;;;;;;29.73;22.83;;;7.70;99.90;;;8.46;100.00;97493.72;10339751;28;20710;-66
2024/03/05 00:29:04;;;;;;;33.43;24.50;;;7.70;99.90;;;8.42;100.00;97507.09;10346135;28;20269;-65
2024/03/05 00:34:08;;;;;;;36.30;25.97;;;7.60;99.90;;;8.44;100.00;97507.16;10340259;28;20281;-67
2024/03/05 00:39:12;;;;;;;32.53;24.43;;;7.60;99.90;;;8.44;100.00;97500.44;10344142;28;20241;-66
2024/03/05 00:44:16;;;;;;;35.27;25.33;;;7.70;99.90;;;8.43;100.00;97513.91;10342864;28;20706;-67
2024/03/05 00:49:20;;;;;;;34.33;24.33;;;7.70;99.90;;;8.45;100.00;97514.03;10345814;28;21124;-65
2024/03/05 00:54:24;;;;;;;33.83;24.07;;;7.60;99.90;;;8.48;100.00;97522.72;10339341;28;20235;-67
2024/03/05 00:59:27;;;;;;;32.20;23.30;;;7.70;99.90;;;8.47;100.00;97520.97;10335080;28;20625;-66
2024/03/05 01:04:31;;;;;;;31.77;22.40;;;7.60;99.90;;;8.47;100.00;97520.97;10350868;23;20222;-67
2024/03/05 01:09:35;;;;;;;35.73;24.63;;;7.70;99.90;;;8.46;100.00;97514.09;10377080;28;20232;-66
2024/03/05 01:14:38;;;;;;;32.93;23.70;;;7.60;99.90;;;8.46;100.00;97523.41;10356530;28;20368;-65
2024/03/05 01:19:41;;;;;;;38.07;25.50;;;7.70;99.90;;;8.46;100.00;97515.78;10346622;28;20341;-66
2024/03/05 01:24:46;;;;;;;34.57;25.23;;;7.70;99.90;;;8.46;100.00;97511.56;10350439;28;20229;-66
2024/03/05 01:29:50;;;;;;;36.53;25.07;;;7.70;99.90;;;8.48;100.00;97498.94;10347244;28;20233;-66
2024/03/05 01:34:55;;;;;;;39.20;26.43;;;7.70;99.90;;;8.45;100.00;97514.91;10347133;28;20377;-66
2024/03/05 01:40:00;;;;;;;39.37;25.37;;;7.60;99.90;;;8.43;100.00;97511.38;10347522;28;20262;-66
2024/03/05 01:45:04;;;;;;;38.90;25.93;;;7.60;99.90;;;8.49;100.00;97513.41;10346353;28;20301;-65
2024/03/05 01:50:09;;;;;;;35.53;24.73;;;7.60;99.90;;;8.41;100.00;97507.84;10347764;28;20312;-66
2024/03/05 01:55:17;;;;;;;36.30;25.40;;;7.60;99.90;;;8.43;100.00;97511.38;10348631;28;20634;-66
2024/03/05 02:00:21;;;;;;;37.77;26.37;;;7.60;99.90;;;8.51;100.00;97511.84;10342620;28;20231;-67
2024/03/05 02:05:24;;;;;;;35.37;24.97;;;7.60;99.90;;;8.45;100.00;97516.56;10347398;28;20312;-66
2024/03/05 02:10:29;;;;;;;33.23;22.67;;;7.60;99.90;;;8.42;100.00;97511.31;10345683;28;20253;-66
2024/03/05 02:15:32;;;;;;;34.13;24.07;;;7.60;99.90;;;8.35;100.00;97512.53;10345643;28;20226;-67
2024/03/05 02:20:36;;;;;;;37.53;23.93;;;7.50;99.90;;;8.33;100.00;97514.16;10345845;28;20221;-66
2024/03/05 02:25:40;;;;;;;34.13;23.87;;;7.60;99.90;;;8.38;100.00;97528.00;10344173;28;20604;-68
2024/03/05 02:30:44;;;;;;;35.37;24.97;;;7.60;99.90;;;8.35;100.00;97520.19;10345684;28;20229;-65
2024/03/05 02:35:48;;;;;;;41.63;27.73;;;7.60;99.90;;;8.37;100.00;97521.16;10342481;28;20288;-67
2024/03/05 02:40:53;;;;;;;45.37;29.73;;;7.60;99.90;;;8.39;100.00;97513.66;10346818;28;20608;-66
2024/03/05 02:45:56;;;;;;;49.73;31.80;;;7.60;99.90;;;8.33;100.00;97516.69;10344771;28;20300;-67
2024/03/05 02:50:59;;;;;;;44.97;28.97;;;7.60;99.90;;;8.35;100.00;97513.44;10345555;28;20373;-66
2024/03/05 02:56:05;;;;;;;43.03;29.30;;;7.60;99.90;;;8.32;100.00;97520.00;10344412;28;20768;-67
2024/03/05 03:01:09;;;;;;;41.50;29.20;;;7.50;99.90;;;8.35;100.00;97515.09;10344024;28;20705;-65
2024/03/05 03:06:17;;;;;;;46.30;29.70;;;7.50;99.90;;;8.28;100.00;97518.06;10344995;28;20224;-66
2024/03/05 03:11:22;;;;;;;44.53;30.03;;;7.50;99.90;;;8.25;100.00;97512.81;10347116;28;20532;-67
2024/03/05 03:16:25;;;;;;;51.83;32.23;;;7.50;99.90;;;8.24;100.00;97522.13;10342967;28;20222;-66
2024/03/05 03:21:28;;;;;;;43.03;29.23;;;7.50;99.90;;;8.26;100.00;97519.66;10345506;28;20249;-66
2024/03/05 03:26:33;;;;;;;47.67;30.77;;;7.50;99.90;;;8.30;100.00;97531.78;10343601;28;20232;-65
2024/03/05 03:31:36;;;;;;;50.67;31.63;;;7.50;99.90;;;8.29;100.00;97535.09;10346461;28;20218;-69
2024/03/05 03:36:40;;;;;;;41.53;27.90;;;7.50;99.90;;;8.25;100.00;97539.13;10342338;28;20230;-66
2024/03/05 03:41:44;;;;;;;39.20;26.43;;;7.50;99.90;;;8.25;100.00;97528.06;10346735;28;20304;-65
2024/03/05 03:46:51;;;;;;;34.60;24.10;;;7.40;99.90;;;8.24;100.00;97529.75;10344081;28;20313;-65
2024/03/05 03:51:55;;;;;;;39.67;26.97;;;7.40;99.90;;;8.20;100.00;97545.59;10345816;28;20253;-66
2024/03/05 03:56:59;;;;;;;39.13;26.73;;;7.40;99.90;;;8.17;100.00;97554.72;10347427;28;20315;-66
2024/03/05 04:02:03;;;;;;;36.97;25.83;;;7.40;99.90;;;8.15;100.00;97553.75;10351248;28;20307;-66
2024/03/05 04:07:06;;;;;;;41.17;27.33;;;7.40;99.90;;;8.12;100.00;97552.75;10349818;28;20220;-67
2024/03/05 04:12:12;;;;;;;41.67;28.23;;;7.40;99.90;;;8.13;100.00;97554.53;10352774;28;20242;-65
2024/03/05 04:17:16;;;;;;;41.93;28.47;;;7.40;99.90;;;8.15;100.00;97562.25;10351900;28;20230;-66
2024/03/05 04:22:19;;;;;;;43.93;28.90;;;7.40;99.90;;;8.13;100.00;97562.19;10351847;28;20664;-66
2024/03/05 04:27:26;;;;;;;43.60;29.73;;;7.40;99.90;;;8.10;100.00;97548.41;10352678;28;20235;-66
2024/03/05 04:32:30;;;;;;;48.83;29.80;;;7.40;99.90;;;8.09;100.00;97552.59;10347540;28;20324;-66
2024/03/05 04:37:33;;;;;;;43.10;28.80;;;7.30;99.90;;;8.06;100.00;97552.38;10348614;28;20234;-66
2024/03/05 04:42:38;;;;;;;39.07;26.37;;;7.30;99.90;;;8.06;100.00;97552.38;10349197;28;20241;-66
2024/03/05 04:47:41;;;;;;;41.57;27.67;;;7.20;99.90;;;7.94;100.00;97554.19;10348852;28;20499;-66
2024/03/05 04:52:44;;;;;;;43.27;27.73;;;7.20;99.90;;;7.91;100.00;97559.09;10348174;28;20225;-67
2024/03/05 04:57:48;;;;;;;40.00;26.07;;;7.10;99.90;;;7.95;100.00;97560.16;10354482;28;20280;-67
2024/03/05 05:02:52;;;;;;;40.60;27.47;;;7.20;99.90;;;7.95;100.00;97567.78;10345703;28;20657;-65
2024/03/05 05:07:57;;;;;;;41.43;28.13;;;7.10;99.90;;;7.88;100.00;97564.00;10348047;28;20594;-65
2024/03/05 05:13:03;;;;;;;42.90;28.37;;;7.10;99.90;;;7.78;100.00;97566.72;10347862;28;20578;-66
2024/03/05 05:18:06;;;;;;;43.47;28.00;;;7.10;99.90;;;7.78;100.00;97557.44;10349870;28;20238;-65
2024/03/05 05:23:09;;;;;;;48.17;30.13;;;7.20;99.90;;;7.80;100.00;97560.09;10348343;28;20242;-65
2024/03/05 05:28:14;;;;;;;47.30;29.60;;;7.20;99.90;;;7.83;100.00;97568.78;10344937;28;20313;-66
2024/03/05 05:33:17;;;;;;;45.20;27.83;;;7.20;99.90;;;7.93;100.00;97565.16;10352331;28;20241;-66
2024/03/05 05:38:20;;;;;;;40.70;26.80;;;7.20;99.90;;;7.91;100.00;97576.91;10351119;28;20308;-66
2024/03/05 05:43:24;;;;;;;40.47;28.73;;;7.20;99.90;;;7.87;100.00;97574.97;10348505;28;20234;-65
2024/03/05 05:48:28;;;;;;;41.67;28.73;;;7.20;99.90;;;7.83;100.00;97575.53;10351744;28;20757;-65
2024/03/05 05:53:33;;;;;;;42.83;28.37;;;7.10;99.90;;;7.82;100.00;97576.34;10353048;28;20237;-66
2024/03/05 05:58:37;;;;;;;44.43;28.33;;;7.10;99.90;;;7.84;100.00;97580.75;10348543;28;20795;-66
2024/03/05 06:03:44;;;;;;;37.33;25.43;;;7.10;99.90;;;7.85;100.00;97586.69;10352366;28;20261;-67
2024/03/05 06:08:48;;;;;;;41.70;28.07;;;7.10;99.90;;;7.79;100.00;97583.78;10355161;28;20222;-66
2024/03/05 06:13:52;;;;;;;45.03;27.80;;;7.10;99.90;;;7.83;100.00;97583.16;10353674;28;20249;-66
2024/03/05 06:18:56;;;;;;;49.37;31.43;;;7.20;99.90;;;7.88;100.00;97597.94;10351035;28;20223;-66
2024/03/05 06:23:59;;;;;;;54.50;32.10;;;7.20;99.90;;;7.92;100.00;97593.91;10352154;28;20237;-65
2024/03/05 06:29:06;;;;;;;44.67;28.17;;;7.20;99.90;;;7.92;100.00;97603.22;10352673;28;20250;-65
2024/03/05 06:34:10;;;;;;;42.40;28.77;;;7.20;99.90;;;7.96;100.00;97600.97;10349835;28;20230;-66
2024/03/05 06:39:19;;;;;;;42.40;26.97;;;7.30;99.90;;;8.05;100.00;97606.63;10351063;28;20237;-66
2024/03/05 06:44:25;;;;;;;51.37;30.43;;;7.20;99.90;;;8.02;100.00;97606.44;10350104;28;20234;-65
2024/03/05 06:49:31;;;;;;;53.73;31.83;;;7.30;99.90;;;8.01;100.00;97608.88;10352762;28;20226;-66
2024/03/05 06:59:53;;;;;;;52.33;32.00;;;7.30;99.90;;;8.07;100.00;97622.03;10327951;28;20300;-65
2024/03/05 07:04:56;;;;;;;55.97;33.47;;;7.30;99.90;;;8.01;100.00;97619.06;10350457;28;20713;-66
2024/03/05 07:10:00;;;;;;;57.70;33.83;;;7.30;99.90;;;8.03;100.00;97618.38;10351775;28;20365;-66
2024/03/05 07:15:09;;;;;;;53.17;33.07;;;7.40;99.90;;;8.03;100.00;97625.13;10351848;28;20736;-65
2024/03/05 07:20:19;;;;;;;50.43;31.20;;;7.40;99.90;;;8.15;100.00;97630.13;10351846;28;20297;-66
2024/03/05 07:25:24;;;;;;;48.40;30.43;;;7.50;99.90;;;8.18;100.00;97632.84;10351227;28;20249;-66
2024/03/05 07:30:29;;;;;;;49.60;32.03;;;7.50;99.90;;;8.16;100.00;97639.53;10349992;28;20718;-66
2024/03/05 07:35:32;;;;;;;47.23;31.10;;;7.50;99.90;;;8.18;100.00;97638.81;10357979;28;20241;-66
2024/03/05 07:40:35;;;;;;;52.87;32.80;;;7.50;99.90;;;8.17;100.00;97637.06;10359216;28;20280;-66
2024/03/05 07:45:40;;;;;;;56.13;32.63;;;7.50;99.90;;;8.13;100.00;97643.63;10362057;28;20230;-66
2024/03/05 07:50:43;;;;;;;53.97;33.07;;;7.40;99.90;;;8.12;100.00;97644.41;10362371;28;20660;-65
2024/03/05 07:55:46;;;;;;;52.10;31.67;;;7.50;99.90;;;8.13;100.00;97646.19;10358785;28;20261;-64
2024/03/05 08:00:51;;;;;;;58.00;32.90;;;7.50;99.90;;;8.18;100.00;97643.91;10358718;28;20233;-66
2024/03/05 08:05:55;;;;;;;57.37;33.90;;;7.50;99.90;;;8.21;100.00;97663.59;10357574;28;20313;-66
2024/03/05 08:10:58;;;;;;;54.90;33.13;;;7.60;99.90;;;8.24;100.00;97658.69;10356544;28;20301;-66
2024/03/05 08:16:04;;;;;;;61.23;35.20;;;7.60;99.90;;;8.23;100.00;97657.81;10360720;28;20233;-65
2024/03/05 08:21:07;;;;;;;55.20;33.43;;;7.60;99.90;;;8.27;100.00;97661.41;10357140;28;20226;-65
2024/03/05 08:26:11;;;;;;;63.10;35.80;;;7.70;99.90;;;8.30;100.00;97656.56;10357076;28;20223;-64
2024/03/05 08:31:15;;;;;;;62.47;35.20;;;7.70;99.90;;;8.33;100.00;97659.28;10358070;28;20254;-66
2024/03/05 08:36:19;;;;;;;64.23;35.00;;;7.70;99.90;;;8.31;100.00;97661.72;10353868;28;20226;-65
2024/03/05 08:41:22;;;;;;;60.50;33.73;;;7.70;99.90;;;8.35;100.00;97663.69;10355853;28;20772;-65
2024/03/05 08:46:26;;;;;;;64.87;35.53;;;7.70;99.90;;;8.30;100.00;97666.75;10354978;28;20232;-66
2024/03/05 08:51:30;;;;;;;62.43;35.93;;;7.70;99.90;;;8.31;100.00;97661.72;10355425;28;20239;-65
2024/03/05 08:56:33;;;;;;;63.83;34.80;;;7.70;99.90;;;8.39;100.00;97667.34;10355459;28;20226;-65
2024/03/05 09:01:38;;;;;;;63.07;34.17;;;7.80;99.90;;;8.42;100.00;97659.00;10356563;28;20289;-63
2024/03/05 09:06:41;;;;;;;64.28;35.55;;;7.80;99.90;;;8.43;100.00;97664.19;10356591;28;20225;-64
2024/03/05 09:11:45;;;;;;;65.40;36.23;;;7.80;99.90;;;8.43;100.00;97670.94;10357194;28;20262;-64
2024/03/05 09:16:49;;;;;;;72.07;37.20;;;7.80;99.90;;;8.45;100.00;97671.94;10355829;28;20238;-65
2024/03/05 09:21:53;;;;;;;71.30;37.37;;;7.80;99.90;;;8.46;100.00;97679.66;10354020;28;20234;-65
2024/03/05 09:26:56;;;;;;;69.20;38.70;;;7.80;99.90;;;8.44;100.00;97673.59;10352380;28;20786;-65
2024/03/05 09:32:00;;;;;;;75.20;42.63;;;7.80;99.90;;;8.46;100.00;97677.09;10355908;28;20343;-65
2024/03/05 09:37:04;;;;;;;67.90;38.73;;;7.90;99.90;;;8.52;100.00;97669.84;10365121;28;20304;-66
2024/03/05 09:42:10;;;;;;;63.60;35.67;;;7.90;99.90;;;8.52;100.00;97676.59;10354159;28;20244;-65
2024/03/05 09:47:16;;;;;;;70.27;38.37;;;7.90;99.90;;;8.48;100.00;97677.22;10355392;28;20361;-65
2024/03/05 09:52:20;;;;;;;68.53;37.03;;;7.90;99.90;;;8.38;100.00;97685.88;10353421;28;20354;-64
2024/03/05 09:57:24;;;;;;;69.40;36.60;;;7.90;99.90;;;8.38;100.00;97678.25;10351940;28;20252;-65
2024/03/05 10:02:29;;;;;;;72.13;37.50;;;7.80;99.90;;;8.53;100.00;97673.28;10352504;28;20595;-65
2024/03/05 10:07:32;;;;;;;66.63;36.47;;;7.90;99.90;;;8.51;100.00;97673.19;10353087;28;22440;-66
2024/03/05 10:12:35;;;;;;;64.00;34.60;;;7.90;99.90;;;8.59;100.00;97677.88;10354484;28;20234;-65
2024/03/05 10:17:43;;;;;;;67.83;35.30;;;8.00;99.90;;;8.72;100.00;97681.25;10354971;28;20317;-65
2024/03/05 10:22:52;;;;;;;72.33;34.23;;;8.00;99.90;;;8.75;100.00;97683.97;10351052;28;20234;-66
2024/03/05 10:27:56;;;;;;;63.47;32.93;;;8.10;99.90;;;8.64;100.00;97691.75;10350354;28;20226;-67
2024/03/05 10:33:02;;;;;;;65.33;32.70;;;8.00;99.90;;;8.61;100.00;97691.56;10353380;28;20238;-67
2024/03/05 10:38:09;;;;;;;48.53;26.80;;;8.00;99.90;;;8.52;100.00;97697.84;10351611;28;20230;-66
2024/03/05 10:43:15;;;;;;;30.97;17.87;;;8.00;99.90;;;8.39;100.00;97703.00;10349147;28;20611;-66
2024/03/05 10:48:21;;;;;;;17.47;12.03;;;7.80;99.90;;;8.28;100.00;97702.28;10351993;28;20233;-64
2024/03/05 10:53:26;;;;;;;18.70;13.10;;;7.70;99.90;;;8.07;100.00;97706.88;10353294;28;20288;-65
2024/03/05 10:59:11;;;;;;;21.20;13.50;;;7.50;99.90;;;7.98;100.00;97710.50;10352034;28;20258;-66
2024/03/05 11:04:11;;;;;;;21.83;15.90;;;7.40;99.90;;;7.97;100.00;97713.81;10350191;28;20312;-66
2024/03/05 11:09:19;;;;;;;32.50;27.47;;;7.50;99.90;;;8.11;100.00;97716.47;10360955;28;20764;-65
2024/03/05 11:14:23;;;;;;;21.10;15.67;;;7.60;99.90;;;8.25;100.00;97721.56;10361223;28;20389;-65
2024/03/05 11:19:28;;;;;;;21.20;17.03;;;7.60;99.90;;;8.19;100.00;97723.72;10358345;28;20793;-65
2024/03/05 11:24:33;;;;;;;19.73;15.57;;;7.50;99.90;;;8.24;100.00;97722.34;10358821;28;20230;-64
2024/03/05 11:29:38;;;;;;;20.20;15.40;;;7.60;99.90;;;8.13;100.00;97714.03;10360120;28;20400;-66
2024/03/05 11:34:47;;;;;;;22.40;15.90;;;7.60;99.90;;;8.19;100.00;97711.00;10356226;28;20315;-64
2024/03/05 11:39:51;;;;;;;16.90;13.10;;;7.70;99.90;;;8.23;100.00;97712.94;10359473;28;20234;-65
2024/03/05 11:44:55;;;;;;;16.23;12.83;;;7.70;99.90;;;8.38;100.00;97715.56;10356055;28;20296;-63
2024/03/05 11:50:06;;;;;;;16.50;12.30;;;7.80;99.90;;;8.53;100.00;97719.13;10358449;28;20317;-65
2024/03/05 11:55:11;;;;;;;14.27;12.70;;;7.90;99.90;;;8.46;100.00;97717.84;10359033;28;20226;-64
2024/03/05 12:00:17;;;;;;;15.80;12.03;;;7.90;99.90;;;8.62;100.00;97708.63;10357348;28;20261;-65
2024/03/05 12:05:22;;;;;;;15.63;12.63;;;8.00;99.90;;;8.73;100.00;97711.06;10358013;28;20769;-65
2024/03/05 12:10:28;;;;;;;14.87;13.00;;;8.10;99.90;;;8.71;100.00;97717.72;10357675;28;20226;-65
2024/03/05 12:15:34;;;;;;;15.57;13.50;;;8.00;99.90;;;8.62;100.00;97718.81;10357694;28;20222;-65
2024/03/05 12:20:41;;;;;;;15.23;12.47;;;8.00;99.90;;;8.52;100.00;97704.63;10356822;28;20789;-66
2024/03/05 12:25:44;;;;;;;16.33;13.00;;;7.90;99.90;;;8.44;100.00;97704.16;10358556;28;20317;-66
2024/03/05 12:30:48;;;;;;;15.60;13.23;;;7.80;99.90;;;8.35;100.00;97706.06;10356793;28;20851;-65
2024/03/05 12:35:53;;;;;;;19.07;14.27;;;7.80;99.90;;;8.46;100.00;97710.22;10358140;28;20308;-66
2024/03/05 12:41:00;;;;;;;16.67;14.47;;;7.80;99.90;;;8.44;100.00;97708.34;10356442;28;20226;-66
2024/03/05 12:46:04;;;;;;;19.53;17.43;;;7.80;99.90;;;8.42;100.00;97715.03;10357006;28;20252;-65
2024/03/05 12:51:08;;;;;;;17.60;14.80;;;7.80;99.90;;;8.32;100.00;97708.44;10356384;28;20226;-66
2024/03/05 12:56:15;;;;;;;16.00;13.87;;;7.70;99.90;;;8.34;100.00;97722.16;10356604;28;20233;-66
2024/03/05 13:01:19;;;;;;;16.30;14.17;;;7.80;99.90;;;8.33;100.00;97717.84;10352139;28;20308;-66
2024/03/05 13:06:24;;;;;;;17.03;13.60;;;7.80;99.90;;;8.39;100.00;97715.72;10355474;28;20340;-65
2024/03/05 13:11:27;;;;;;;14.83;12.47;;;7.80;99.90;;;8.38;100.00;97725.75;10356759;28;20371;-65
2024/03/05 13:16:30;;;;;;;17.10;13.90;;;7.80;99.90;;;8.37;100.00;97718.91;10355006;28;20290;-67
2024/03/05 13:21:35;;;;;;;15.37;13.80;;;7.80;99.90;;;8.42;100.00;97727.78;10354073;28;20246;-66
2024/03/05 13:26:41;;;;;;;15.57;13.03;;;7.80;99.90;;;8.49;100.00;97712.94;10353443;28;20313;-66
2024/03/05 13:31:45;;;;;;;15.83;13.97;;;7.90;99.90;;;8.55;100.00;97713.31;10355907;28;20234;-66
2024/03/05 13:36:49;;;;;;;14.87;13.27;;;8.00;99.90;;;8.71;100.00;97711.75;10355310;28;20230;-65
2024/03/05 13:41:53;;;;;;;16.57;14.77;;;8.00;99.90;;;8.68;100.00;97716.66;10353465;28;20741;-66
2024/03/05 13:46:57;;;;;;;15.03;13.53;;;8.00;99.90;;;8.93;100.00;97716.50;10352929;28;20650;-66
2024/03/05 13:52:02;;;;;;;14.50;13.07;;;8.20;99.90;;;8.82;100.00;97713.28;10353285;28;20253;-65
2024/03/05 13:57:07;;;;;;;15.33;13.00;;;8.10;99.90;;;8.83;100.00;97715.03;10352114;28;20249;-66
2024/03/05 14:02:10;;;;;;;16.67;13.67;;;8.20;99.90;;;8.98;100.00;97725.28;10353124;28;20284;-66
2024/03/05 14:07:15;;;;;;;24.67;21.15;;;8.20;99.90;;;8.93;100.00;97719.94;10352161;28;20648;-66
2024/03/05 14:12:19;;;;;;;20.67;18.17;;;8.30;99.90;;;9.06;100.00;97720.66;10352995;28;20609;-66
2024/03/05 14:17:22;;;;;;;14.83;12.33;;;8.30;99.90;;;9.00;100.00;97714.41;10348647;28;20230;-66
2024/03/05 14:22:27;;;;;;;13.65;12.00;;;8.30;99.90;;;8.98;100.00;97715.97;10353300;28;20706;-66
2024/03/05 14:27:30;;;;;;;13.97;12.47;;;8.30;99.90;;;8.97;100.00;97721.84;10353466;28;20234;-66
2024/03/05 14:32:34;;;;;;;14.65;12.85;;;8.30;99.90;;;9.06;100.00;97725.75;10351964;28;20350;-66
2024/03/05 14:37:38;;;;;;;13.43;12.17;;;8.40;99.90;;;9.16;100.00;97723.00;10354499;28;20222;-66
2024/03/05 14:42:43;;;;;;;12.45;11.25;;;8.50;99.90;;;9.24;100.00;97726.84;10350973;28;20253;-66
2024/03/05 14:47:48;;;;;;;13.13;11.93;;;8.50;99.90;;;9.20;100.00;97727.47;10352473;28;20237;-66
2024/03/05 14:52:53;;;;;;;24.35;20.95;;;8.50;99.90;;;9.18;100.00;97732.47;10349198;28;20575;-66
2024/03/05 14:57:57;;;;;;;11.40;10.23;;;8.50;99.90;;;9.16;100.00;97736.63;10349993;28;20227;-65
2024/03/05 15:03:00;;;;;;;13.52;12.18;;;8.50;99.90;;;9.25;100.00;97747.34;10390465;23;20237;-65
2024/03/05 15:08:06;;;;;;;28.92;26.38;;;8.60;99.90;;;9.18;100.00;97744.34;10375521;28;20230;-65
2024/03/05 15:13:10;;;;;;;9.68;8.77;;;8.50;99.90;;;9.16;100.00;97748.50;10393410;28;20693;-66
2024/03/05 15:18:14;;;;;;;11.68;10.57;;;8.50;99.90;;;9.09;100.00;97738.69;10399523;28;20902;-67
2024/03/05 15:23:19;;;;;;;11.85;10.65;;;8.50;99.90;;;9.13;100.00;97750.81;10402504;28;20230;-66
2024/03/05 15:28:23;;;;;;;12.43;11.23;;;8.50;99.90;;;9.15;100.00;97750.13;10400182;28;20580;-66
2024/03/05 15:33:26;;;;;;;13.02;11.82;;;8.50;99.90;;;9.16;100.00;97751.03;10400809;28;20740;-66
2024/03/05 15:38:31;;;;;;;11.25;10.20;;;8.50;99.90;;;9.20;100.00;97747.88;10395939;28;20225;-66
2024/03/05 15:43:35;;;;;;;11.40;10.30;;;8.50;99.90;;;9.14;100.00;97752.59;10399325;28;20320;-66
2024/03/05 15:48:38;;;;;;;9.93;8.65;;;8.40;99.90;;;9.03;100.00;97750.28;10403415;28;20276;-66
2024/03/05 15:53:43;;;;;;;10.45;8.82;;;8.40;99.90;;;8.97;100.00;97755.00;10407710;28;20313;-66
2024/03/05 16:04:15;;;;;;;8.48;7.60;;;8.20;99.90;;;8.85;100.00;97749.16;10379109;28;20230;-66
2024/03/05 16:09:40;;;;;;;6.35;5.85;;;8.20;99.90;;;8.84;100.00;97752.47;10408672;28;20222;-68
2024/03/05 16:14:43;;;;;;;6.57;6.07;;;8.20;99.90;;;8.78;100.00;97755.56;10409116;28;20795;-67
2024/03/05 16:19:46;;;;;;;5.90;5.40;;;8.10;99.90;;;8.62;100.00;97762.13;10404718;28;20226;-68
2024/03/05 16:24:51;;;;;;;6.73;6.13;;;8.00;99.90;;;8.55;100.00;97759.19;10405947;28;20307;-65
2024/03/05 16:29:57;;;;;;;9.37;8.53;;;7.90;99.90;;;8.54;100.00;97770.16;10400993;28;20579;-65
2024/03/05 16:35:00;;;;;;;8.30;7.60;;;7.90;99.90;;;8.47;100.00;97768.03;10389453;28;20293;-65
2024/03/05 16:40:06;;;;;;;7.90;7.20;;;7.90;99.90;;;8.50;100.00;97780.06;10384030;28;20221;-63
2024/03/05 16:45:11;;;;;;;12.25;11.13;;;7.90;99.90;;;8.48;100.00;97782.50;10382627;28;20336;-63
2024/03/05 16:50:15;;;;;;;8.37;7.60;;;7.90;99.90;;;8.46;100.00;97784.06;10382788;28;20825;-65
2024/03/05 16:55:22;;;;;;;9.20;8.50;;;7.90;99.90;;;8.44;100.00;97780.56;10387054;28;20240;-65
2024/03/05 17:00:30;;;;;;;9.53;8.73;;;7.80;99.90;;;8.43;100.00;97785.56;10384483;28;20229;-65
2024/03/05 17:05:36;;;;;;;9.43;8.63;;;7.80;99.90;;;8.32;100.00;97789.91;10393017;28;20225;-66
2024/03/05 17:10:43;;;;;;;9.70;8.90;;;7.70;99.90;;;8.23;100.00;97782.56;10374602;28;20228;-63
2024/03/05 17:15:53;;;;;;;9.50;8.70;;;7.60;99.90;;;8.12;100.00;97786.06;10372497;28;20635;-65
2024/03/05 17:20:57;;;;;;;11.63;10.53;;;7.50;99.90;;;8.07;100.00;97787.47;10374856;28;20233;-65
2024/03/05 17:26:02;;;;;;;12.10;11.00;;;7.50;99.90;;;8.00;100.00;97787.81;10377728;28;20230;-66
2024/03/05 17:31:05;;;;;;;11.07;10.07;;;7.40;99.90;;;7.96;100.00;97790.97;10378250;28;20229;-65
2024/03/05 17:36:09;;;;;;;11.37;10.37;;;7.30;99.90;;;7.83;100.00;97797.75;10378223;28;20615;-65
2024/03/05 17:41:14;;;;;;;11.53;10.43;;;7.20;99.90;;;7.81;100.00;97795.91;10378915;28;20233;-65
2024/03/05 17:46:18;;;;;;;18.87;17.10;;;7.10;99.90;;;7.78;100.00;97803.31;10390219;28;20218;-64
2024/03/05 17:51:24;;;;;;;18.87;17.00;;;7.10;99.90;;;7.70;100.00;97814.66;10375903;28;20230;-65
2024/03/05 17:56:30;;;;;;;14.47;13.17;;;7.00;99.90;;;7.65;100.00;97822.88;10376614;28;20237;-66
2024/03/05 18:01:35;;;;;;;15.27;13.77;;;7.00;99.90;;;7.61;100.00;97820.91;10372480;28;20324;-65
2024/03/05 18:06:38;;;;;;;14.87;13.37;;;7.00;99.90;;;7.64;100.00;97826.19;10371937;28;20226;-64
2024/03/05 18:11:44;;;;;;;14.33;13.03;;;7.00;99.90;;;7.64;100.00;97826.19;10371313;28;20229;-66
2024/03/05 18:16:47;;;;;;;13.03;11.83;;;7.00;99.90;;;7.62;100.00;97830.28;10370282;28;20268;-65
2024/03/05 18:21:50;;;;;;;11.47;10.37;;;6.90;99.90;;;7.58;100.00;97830.88;10372954;28;20729;-66
2024/03/05 18:26:55;;;;;;;12.47;11.23;;;6.80;99.90;;;7.55;100.00;97830.63;10377043;28;20249;-65
2024/03/05 18:31:59;;;;;;;13.03;11.73;;;6.80;99.90;;;7.45;100.00;97838.44;10372926;28;20225;-63
2024/03/05 18:37:05;;;;;;;12.70;11.50;;;6.80;99.90;;;7.43;100.00;97845.94;10372635;28;20229;-64
2024/03/05 18:42:14;;;;;;;12.77;11.53;;;6.80;99.90;;;7.39;100.00;97835.47;10371892;28;20792;-63
2024/03/05 18:47:18;;;;;;;14.30;13.00;;;6.80;99.90;;;7.43;100.00;97845.06;10375453;28;20229;-66
2024/03/05 18:52:21;;;;;;;14.30;12.80;;;6.80;99.90;;;7.49;100.00;97850.56;10382064;28;20236;-66
2024/03/05 18:57:27;;;;;;;15.50;13.83;;;6.80;99.90;;;7.47;100.00;97848.69;10391443;28;20248;-65
2024/03/05 19:02:30;;;;;;;14.13;12.80;;;6.80;99.90;;;7.44;100.00;97852.81;10372841;28;20251;-65
2024/03/05 19:07:34;;;;;;;15.13;13.70;;;6.80;99.90;;;7.47;100.00;97857.22;10373817;28;20792;-66
2024/03/05 19:12:39;;;;;;;15.73;14.23;;;6.80;99.90;;;7.44;100.00;97850.28;10374630;28;20232;-63
2024/03/05 19:17:43;;;;;;;13.87;12.47;;;6.70;99.90;;;7.33;100.00;97865.56;10376256;28;20234;-65
2024/03/05 19:22:46;;;;;;;15.73;14.23;;;6.70;99.90;;;7.37;100.00;97859.91;10370969;28;20236;-65
2024/03/05 19:27:51;;;;;;;21.03;18.67;;;6.80;99.90;;;7.44;100.00;97854.47;10369652;28;20642;-66
2024/03/05 19:32:54;;;;;;;83.13;51.60;;;6.80;99.90;;;7.45;100.00;97856.22;10376283;28;20267;-67
2024/03/05 19:37:57;;;;;;;33.43;25.07;;;6.80;99.90;;;7.44;100.00;97852.81;10375205;28;20234;-65
2024/03/05 19:43:02;;;;;;;18.87;16.97;;;6.80;99.90;;;7.51;100.00;97859.19;10375688;28;20233;-65
2024/03/05 19:48:07;;;;;;;15.23;13.70;;;6.80;99.90;;;7.54;100.00;97864.50;10375707;28;20287;-66
2024/03/05 19:53:10;;;;;;;13.43;12.13;;;6.70;99.90;;;7.48;100.00;97871.69;10377884;28;20233;-66
2024/03/05 19:58:17;;;;;;;14.87;13.37;;;6.70;99.90;;;7.36;100.00;97868.31;10377478;28;20290;-65
2024/03/05 20:03:20;;;;;;;14.30;12.90;;;6.70;99.90;;;7.39;100.00;97860.91;10382809;28;20237;-66
2024/03/05 20:08:24;;;;;;;16.60;15.20;;;6.70;99.90;;;7.19;100.00;97860.41;10373277;28;20233;-66
2024/03/05 20:13:28;;;;;;;14.47;12.97;;;6.60;99.90;;;7.17;100.00;97856.84;10372317;28;20265;-67
2024/03/05 20:18:32;;;;;;;15.47;13.13;;;6.50;99.90;;;7.13;100.00;97865.06;10377457;28;20309;-66
2024/03/05 20:23:35;;;;;;;16.73;15.03;;;6.50;99.90;;;7.13;100.00;97866.72;10374532;28;20772;-66
2024/03/05 20:28:40;;;;;;;16.07;14.37;;;6.40;99.90;;;7.12;100.00;97863.25;10382485;28;20942;-64
2024/03/05 20:33:43;;;;;;;11.83;10.70;;;6.50;99.90;;;7.10;100.00;97864.84;10380689;28;20237;-66
2024/03/05 20:38:47;;;;;;;11.50;10.30;;;6.40;99.90;;;7.13;100.00;97865.06;10377686;28;20693;-67
2024/03/05 20:43:52;;;;;;;12.13;10.97;;;6.50;99.90;;;7.21;100.00;97863.94;10376882;28;20234;-65
2024/03/05 20:48:55;;;;;;;17.10;14.53;;;6.50;99.90;;;7.15;100.00;97867.69;10381261;28;20240;-66
2024/03/05 20:53:59;;;;;;;16.17;13.90;;;6.50;99.90;;;7.16;100.00;97875.44;10380972;28;20240;-65
2024/03/05 20:59:03;;;;;;;12.40;11.10;;;6.40;99.90;;;7.13;100.00;97872.69;10380609;28;20797;-66
2024/03/05 21:04:09;;;;;;;13.67;12.40;;;6.40;99.90;;;7.15;100.00;97883.84;10377484;28;20614;-66
2024/03/05 21:09:15;;;;;;;12.93;11.73;;;6.40;99.90;;;6.96;100.00;97876.56;10382794;28;20230;-66